sensor_id;sensor_type;location;lat;lon;timestamp;P1;durP1;ratioP1;P2;durP2;ratioP2
14203;SDS011;7185;51.854;6.622;2023-11-19T00:01:25;19.58;;;12.77;;
14203;SDS011;7185;51.854;6.622;2023-11-19T00:03:57;21.85;;;13.48;;
14203;SDS011;7185;51.854;6.622;2023-11-19T00:06:29;22.58;;;13.73;;
14203;SDS011;7185;51.854;6.622;2023-11-19T00:09:01;22.20;;;14.02;;
14203;SDS011;7185;51.854;6.622;2023-11-19T00:11:37;30.70;;;14.57;;
14203;SDS011;7185;51.854;6.622;2023-11-19T00:14:08;22.13;;;14.90;;
14203;SDS011;7185;51.854;6.622;2023-11-19T00:16:42;23.45;;;14.88;;
14203;SDS011;7185;51.854;6.622;2023-11-19T00:19:13;30.60;;;15.75;;
14203;SDS011;7185;51.854;6.622;2023-11-19T00:21:47;28.60;;;16.90;;
14203;SDS011;7185;51.854;6.622;2023-11-19T00:24:19;27.48;;;16.20;;
14203;SDS011;7185;51.854;6.622;2023-11-19T00:26:51;26.65;;;16.23;;
14203;SDS011;7185;51.854;6.622;2023-11-19T00:29:25;25.15;;;15.98;;
14203;SDS011;7185;51.854;6.622;2023-11-19T00:32:03;27.48;;;17.52;;
14203;SDS011;7185;51.854;6.622;2023-11-19T00:34:37;25.53;;;17.83;;
14203;SDS011;7185;51.854;6.622;2023-11-19T00:37:09;29.13;;;17.98;;
14203;SDS011;7185;51.854;6.622;2023-11-19T00:39:41;32.15;;;18.35;;
14203;SDS011;7185;51.854;6.622;2023-11-19T00:42:16;34.20;;;18.83;;
14203;SDS011;7185;51.854;6.622;2023-11-19T00:44:57;28.13;;;18.25;;
14203;SDS011;7185;51.854;6.622;2023-11-19T00:47:32;30.48;;;18.55;;
14203;SDS011;7185;51.854;6.622;2023-11-19T00:50:07;27.63;;;17.50;;
14203;SDS011;7185;51.854;6.622;2023-11-19T00:52:41;29.98;;;17.95;;
14203;SDS011;7185;51.854;6.622;2023-11-19T00:55:15;28.83;;;18.23;;
14203;SDS011;7185;51.854;6.622;2023-11-19T00:57:54;32.13;;;20.20;;
14203;SDS011;7185;51.854;6.622;2023-11-19T01:00:26;26.98;;;17.90;;
14203;SDS011;7185;51.854;6.622;2023-11-19T01:03:03;24.80;;;16.17;;
14203;SDS011;7185;51.854;6.622;2023-11-19T01:05:36;27.10;;;16.75;;
14203;SDS011;7185;51.854;6.622;2023-11-19T01:08:11;24.08;;;16.52;;
14203;SDS011;7185;51.854;6.622;2023-11-19T01:10:45;24.20;;;16.17;;
14203;SDS011;7185;51.854;6.622;2023-11-19T01:13:17;26.95;;;16.55;;
14203;SDS011;7185;51.854;6.622;2023-11-19T01:15:51;26.10;;;16.80;;
14203;SDS011;7185;51.854;6.622;2023-11-19T01:18:24;27.65;;;17.25;;
14203;SDS011;7185;51.854;6.622;2023-11-19T01:20:56;26.50;;;16.65;;
14203;SDS011;7185;51.854;6.622;2023-11-19T01:23:28;27.70;;;15.88;;
14203;SDS011;7185;51.854;6.622;2023-11-19T01:26:03;31.95;;;16.48;;
14203;SDS011;7185;51.854;6.622;2023-11-19T01:28:35;26.42;;;16.48;;
14203;SDS011;7185;51.854;6.622;2023-11-19T01:31:09;27.55;;;15.93;;
14203;SDS011;7185;51.854;6.622;2023-11-19T01:33:45;25.10;;;15.27;;
14203;SDS011;7185;51.854;6.622;2023-11-19T01:36:17;27.85;;;16.85;;
14203;SDS011;7185;51.854;6.622;2023-11-19T01:38:53;24.98;;;14.43;;
14203;SDS011;7185;51.854;6.622;2023-11-19T01:41:26;24.55;;;14.68;;
14203;SDS011;7185;51.854;6.622;2023-11-19T01:43:58;28.08;;;14.75;;
14203;SDS011;7185;51.854;6.622;2023-11-19T01:46:30;24.83;;;15.38;;
14203;SDS011;7185;51.854;6.622;2023-11-19T01:49:04;23.65;;;13.93;;
14203;SDS011;7185;51.854;6.622;2023-11-19T01:51:36;24.25;;;13.68;;
14203;SDS011;7185;51.854;6.622;2023-11-19T01:54:18;22.85;;;14.15;;
14203;SDS011;7185;51.854;6.622;2023-11-19T01:56:49;22.55;;;13.75;;
14203;SDS011;7185;51.854;6.622;2023-11-19T01:59:24;21.48;;;13.15;;
14203;SDS011;7185;51.854;6.622;2023-11-19T02:01:59;24.15;;;13.90;;
14203;SDS011;7185;51.854;6.622;2023-11-19T02:04:32;27.55;;;14.02;;
14203;SDS011;7185;51.854;6.622;2023-11-19T02:07:06;22.65;;;13.32;;
14203;SDS011;7185;51.854;6.622;2023-11-19T02:09:40;23.80;;;13.25;;
14203;SDS011;7185;51.854;6.622;2023-11-19T02:12:13;23.00;;;12.60;;
14203;SDS011;7185;51.854;6.622;2023-11-19T02:14:48;23.42;;;12.73;;
14203;SDS011;7185;51.854;6.622;2023-11-19T02:17:26;25.60;;;12.70;;
14203;SDS011;7185;51.854;6.622;2023-11-19T02:19:59;22.27;;;11.48;;
14203;SDS011;7185;51.854;6.622;2023-11-19T02:22:31;26.33;;;11.85;;
14203;SDS011;7185;51.854;6.622;2023-11-19T02:25:04;18.27;;;11.00;;
14203;SDS011;7185;51.854;6.622;2023-11-19T02:27:46;23.77;;;11.05;;
14203;SDS011;7185;51.854;6.622;2023-11-19T02:30:25;22.83;;;10.52;;
14203;SDS011;7185;51.854;6.622;2023-11-19T02:32:58;23.73;;;9.45;;
14203;SDS011;7185;51.854;6.622;2023-11-19T02:35:35;22.95;;;9.25;;
14203;SDS011;7185;51.854;6.622;2023-11-19T02:38:19;28.73;;;9.73;;
14203;SDS011;7185;51.854;6.622;2023-11-19T02:40:51;25.23;;;9.68;;
14203;SDS011;7185;51.854;6.622;2023-11-19T02:43:25;20.38;;;8.25;;
14203;SDS011;7185;51.854;6.622;2023-11-19T02:45:57;19.50;;;8.38;;
14203;SDS011;7185;51.854;6.622;2023-11-19T02:48:28;17.80;;;8.77;;
14203;SDS011;7185;51.854;6.622;2023-11-19T02:51:00;24.65;;;8.07;;
14203;SDS011;7185;51.854;6.622;2023-11-19T02:53:33;20.10;;;8.02;;
14203;SDS011;7185;51.854;6.622;2023-11-19T02:56:05;19.25;;;7.35;;
14203;SDS011;7185;51.854;6.622;2023-11-19T02:58:46;19.40;;;7.55;;
14203;SDS011;7185;51.854;6.622;2023-11-19T03:01:22;23.83;;;7.88;;
14203;SDS011;7185;51.854;6.622;2023-11-19T03:03:59;19.40;;;6.85;;
14203;SDS011;7185;51.854;6.622;2023-11-19T03:06:32;28.45;;;6.93;;
14203;SDS011;7185;51.854;6.622;2023-11-19T03:09:04;23.27;;;7.22;;
14203;SDS011;7185;51.854;6.622;2023-11-19T03:11:40;25.48;;;7.82;;
14203;SDS011;7185;51.854;6.622;2023-11-19T03:14:13;22.60;;;7.22;;
14203;SDS011;7185;51.854;6.622;2023-11-19T03:16:45;26.38;;;6.97;;
14203;SDS011;7185;51.854;6.622;2023-11-19T03:19:17;24.45;;;7.20;;
14203;SDS011;7185;51.854;6.622;2023-11-19T03:21:49;30.23;;;7.50;;
14203;SDS011;7185;51.854;6.622;2023-11-19T03:24:20;28.10;;;7.15;;
14203;SDS011;7185;51.854;6.622;2023-11-19T03:26:52;31.15;;;6.63;;
14203;SDS011;7185;51.854;6.622;2023-11-19T03:29:25;22.35;;;6.88;;
14203;SDS011;7185;51.854;6.622;2023-11-19T03:31:58;32.63;;;7.43;;
14203;SDS011;7185;51.854;6.622;2023-11-19T03:34:30;29.05;;;6.68;;
14203;SDS011;7185;51.854;6.622;2023-11-19T03:37:02;24.35;;;6.78;;
14203;SDS011;7185;51.854;6.622;2023-11-19T03:39:34;23.35;;;5.85;;
14203;SDS011;7185;51.854;6.622;2023-11-19T03:42:08;24.23;;;6.15;;
14203;SDS011;7185;51.854;6.622;2023-11-19T03:44:43;27.55;;;6.95;;
14203;SDS011;7185;51.854;6.622;2023-11-19T03:47:15;25.27;;;7.03;;
14203;SDS011;7185;51.854;6.622;2023-11-19T03:49:47;27.83;;;7.18;;
14203;SDS011;7185;51.854;6.622;2023-11-19T03:52:19;26.85;;;6.22;;
14203;SDS011;7185;51.854;6.622;2023-11-19T03:54:51;28.70;;;6.55;;
14203;SDS011;7185;51.854;6.622;2023-11-19T03:57:23;29.75;;;7.03;;
14203;SDS011;7185;51.854;6.622;2023-11-19T03:59:56;26.60;;;6.75;;
14203;SDS011;7185;51.854;6.622;2023-11-19T04:02:29;25.23;;;7.15;;
14203;SDS011;7185;51.854;6.622;2023-11-19T04:05:01;27.02;;;6.97;;
14203;SDS011;7185;51.854;6.622;2023-11-19T04:07:33;29.30;;;6.53;;
14203;SDS011;7185;51.854;6.622;2023-11-19T04:10:06;34.53;;;7.78;;
14203;SDS011;7185;51.854;6.622;2023-11-19T04:12:39;27.38;;;7.85;;
14203;SDS011;7185;51.854;6.622;2023-11-19T04:15:12;30.52;;;6.55;;
14203;SDS011;7185;51.854;6.622;2023-11-19T04:17:44;26.77;;;6.95;;
14203;SDS011;7185;51.854;6.622;2023-11-19T04:20:16;29.92;;;6.70;;
14203;SDS011;7185;51.854;6.622;2023-11-19T04:22:49;25.88;;;6.75;;
14203;SDS011;7185;51.854;6.622;2023-11-19T04:25:21;34.95;;;6.88;;
14203;SDS011;7185;51.854;6.622;2023-11-19T04:27:53;41.58;;;7.45;;
14203;SDS011;7185;51.854;6.622;2023-11-19T04:30:26;29.15;;;7.82;;
14203;SDS011;7185;51.854;6.622;2023-11-19T04:32:58;35.47;;;8.43;;
14203;SDS011;7185;51.854;6.622;2023-11-19T04:35:29;34.75;;;7.55;;
14203;SDS011;7185;51.854;6.622;2023-11-19T04:38:01;40.20;;;7.25;;
14203;SDS011;7185;51.854;6.622;2023-11-19T04:40:33;35.90;;;6.53;;
14203;SDS011;7185;51.854;6.622;2023-11-19T04:43:06;36.40;;;6.97;;
14203;SDS011;7185;51.854;6.622;2023-11-19T04:45:40;40.92;;;7.90;;
14203;SDS011;7185;51.854;6.622;2023-11-19T04:48:11;35.50;;;7.25;;
14203;SDS011;7185;51.854;6.622;2023-11-19T04:50:43;29.05;;;7.35;;
14203;SDS011;7185;51.854;6.622;2023-11-19T04:53:15;30.92;;;6.45;;
14203;SDS011;7185;51.854;6.622;2023-11-19T04:55:47;41.67;;;7.13;;
14203;SDS011;7185;51.854;6.622;2023-11-19T04:58:19;41.38;;;7.72;;
14203;SDS011;7185;51.854;6.622;2023-11-19T05:00:52;30.00;;;6.80;;
14203;SDS011;7185;51.854;6.622;2023-11-19T05:03:23;29.13;;;6.40;;
14203;SDS011;7185;51.854;6.622;2023-11-19T05:05:55;32.92;;;6.40;;
14203;SDS011;7185;51.854;6.622;2023-11-19T05:08:27;32.47;;;6.57;;
14203;SDS011;7185;51.854;6.622;2023-11-19T05:10:59;38.28;;;6.20;;
14203;SDS011;7185;51.854;6.622;2023-11-19T05:13:30;34.53;;;5.68;;
14203;SDS011;7185;51.854;6.622;2023-11-19T05:16:04;34.33;;;6.45;;
14203;SDS011;7185;51.854;6.622;2023-11-19T05:18:36;30.15;;;5.40;;
14203;SDS011;7185;51.854;6.622;2023-11-19T05:21:08;30.40;;;6.47;;
14203;SDS011;7185;51.854;6.622;2023-11-19T05:23:39;37.42;;;7.32;;
14203;SDS011;7185;51.854;6.622;2023-11-19T05:26:17;42.97;;;6.60;;
14203;SDS011;7185;51.854;6.622;2023-11-19T05:28:50;26.35;;;6.55;;
14203;SDS011;7185;51.854;6.622;2023-11-19T05:31:23;38.55;;;6.28;;
14203;SDS011;7185;51.854;6.622;2023-11-19T05:33:55;31.77;;;6.03;;
14203;SDS011;7185;51.854;6.622;2023-11-19T05:36:27;33.78;;;6.80;;
14203;SDS011;7185;51.854;6.622;2023-11-19T05:38:59;34.50;;;5.90;;
14203;SDS011;7185;51.854;6.622;2023-11-19T05:41:30;31.20;;;5.70;;
14203;SDS011;7185;51.854;6.622;2023-11-19T05:44:02;37.03;;;6.32;;
14203;SDS011;7185;51.854;6.622;2023-11-19T05:46:36;38.17;;;6.70;;
14203;SDS011;7185;51.854;6.622;2023-11-19T05:49:12;30.83;;;5.13;;
14203;SDS011;7185;51.854;6.622;2023-11-19T05:51:44;38.03;;;6.13;;
14203;SDS011;7185;51.854;6.622;2023-11-19T05:54:16;33.05;;;6.28;;
14203;SDS011;7185;51.854;6.622;2023-11-19T05:56:49;36.88;;;5.95;;
14203;SDS011;7185;51.854;6.622;2023-11-19T05:59:24;31.75;;;6.43;;
14203;SDS011;7185;51.854;6.622;2023-11-19T06:01:58;34.85;;;5.90;;
14203;SDS011;7185;51.854;6.622;2023-11-19T06:04:30;39.35;;;6.05;;
14203;SDS011;7185;51.854;6.622;2023-11-19T06:07:01;28.65;;;5.20;;
14203;SDS011;7185;51.854;6.622;2023-11-19T06:09:33;32.60;;;6.10;;
14203;SDS011;7185;51.854;6.622;2023-11-19T06:12:05;36.35;;;5.22;;
14203;SDS011;7185;51.854;6.622;2023-11-19T06:14:38;34.22;;;6.72;;
14203;SDS011;7185;51.854;6.622;2023-11-19T06:17:11;43.30;;;6.20;;
14203;SDS011;7185;51.854;6.622;2023-11-19T06:19:42;40.45;;;5.65;;
14203;SDS011;7185;51.854;6.622;2023-11-19T06:22:15;33.25;;;6.40;;
14203;SDS011;7185;51.854;6.622;2023-11-19T06:24:46;30.15;;;5.65;;
14203;SDS011;7185;51.854;6.622;2023-11-19T06:27:18;35.95;;;5.85;;
14203;SDS011;7185;51.854;6.622;2023-11-19T06:29:50;32.45;;;5.68;;
14203;SDS011;7185;51.854;6.622;2023-11-19T06:32:23;34.45;;;6.25;;
14203;SDS011;7185;51.854;6.622;2023-11-19T06:34:55;32.35;;;7.30;;
14203;SDS011;7185;51.854;6.622;2023-11-19T06:37:27;33.55;;;6.40;;
14203;SDS011;7185;51.854;6.622;2023-11-19T06:39:59;24.38;;;5.65;;
14203;SDS011;7185;51.854;6.622;2023-11-19T06:42:31;32.95;;;6.82;;
14203;SDS011;7185;51.854;6.622;2023-11-19T06:45:03;33.50;;;5.93;;
14203;SDS011;7185;51.854;6.622;2023-11-19T06:47:37;37.97;;;6.40;;
14203;SDS011;7185;51.854;6.622;2023-11-19T06:50:09;31.45;;;6.03;;
14203;SDS011;7185;51.854;6.622;2023-11-19T06:52:42;36.20;;;8.25;;
14203;SDS011;7185;51.854;6.622;2023-11-19T06:55:14;29.02;;;6.28;;
14203;SDS011;7185;51.854;6.622;2023-11-19T06:57:47;35.70;;;6.47;;
14203;SDS011;7185;51.854;6.622;2023-11-19T07:00:18;41.20;;;8.10;;
14203;SDS011;7185;51.854;6.622;2023-11-19T07:02:52;35.83;;;6.78;;
14203;SDS011;7185;51.854;6.622;2023-11-19T07:05:24;32.40;;;6.63;;
14203;SDS011;7185;51.854;6.622;2023-11-19T07:07:55;37.50;;;6.10;;
14203;SDS011;7185;51.854;6.622;2023-11-19T07:10:27;39.40;;;5.75;;
14203;SDS011;7185;51.854;6.622;2023-11-19T07:13:02;34.42;;;6.43;;
14203;SDS011;7185;51.854;6.622;2023-11-19T07:15:36;41.50;;;7.17;;
14203;SDS011;7185;51.854;6.622;2023-11-19T07:18:10;40.80;;;6.10;;
14203;SDS011;7185;51.854;6.622;2023-11-19T07:20:42;34.92;;;5.85;;
14203;SDS011;7185;51.854;6.622;2023-11-19T07:23:13;34.88;;;6.93;;
14203;SDS011;7185;51.854;6.622;2023-11-19T07:25:46;32.75;;;5.78;;
14203;SDS011;7185;51.854;6.622;2023-11-19T07:28:20;38.90;;;6.07;;
14203;SDS011;7185;51.854;6.622;2023-11-19T07:30:52;40.88;;;6.85;;
14203;SDS011;7185;51.854;6.622;2023-11-19T07:33:27;37.47;;;6.32;;
14203;SDS011;7185;51.854;6.622;2023-11-19T07:35:59;32.97;;;5.63;;
14203;SDS011;7185;51.854;6.622;2023-11-19T07:38:31;28.25;;;5.75;;
14203;SDS011;7185;51.854;6.622;2023-11-19T07:41:03;35.55;;;6.95;;
14203;SDS011;7185;51.854;6.622;2023-11-19T07:43:35;34.80;;;6.53;;
14203;SDS011;7185;51.854;6.622;2023-11-19T07:46:10;33.88;;;5.45;;
14203;SDS011;7185;51.854;6.622;2023-11-19T07:48:44;41.00;;;6.70;;
14203;SDS011;7185;51.854;6.622;2023-11-19T07:51:17;32.13;;;6.05;;
14203;SDS011;7185;51.854;6.622;2023-11-19T07:53:49;34.88;;;6.20;;
14203;SDS011;7185;51.854;6.622;2023-11-19T07:56:21;42.10;;;6.78;;
14203;SDS011;7185;51.854;6.622;2023-11-19T07:58:53;36.80;;;6.63;;
14203;SDS011;7185;51.854;6.622;2023-11-19T08:01:24;31.05;;;6.10;;
14203;SDS011;7185;51.854;6.622;2023-11-19T08:03:58;38.33;;;6.20;;
14203;SDS011;7185;51.854;6.622;2023-11-19T08:06:31;39.50;;;6.07;;
14203;SDS011;7185;51.854;6.622;2023-11-19T08:09:03;32.83;;;6.80;;
14203;SDS011;7185;51.854;6.622;2023-11-19T08:11:36;34.20;;;5.45;;
14203;SDS011;7185;51.854;6.622;2023-11-19T08:14:09;38.88;;;6.95;;
14203;SDS011;7185;51.854;6.622;2023-11-19T08:16:41;41.33;;;7.68;;
14203;SDS011;7185;51.854;6.622;2023-11-19T08:19:15;33.92;;;6.43;;
14203;SDS011;7185;51.854;6.622;2023-11-19T08:21:46;35.92;;;6.80;;
14203;SDS011;7185;51.854;6.622;2023-11-19T08:24:18;35.22;;;5.82;;
14203;SDS011;7185;51.854;6.622;2023-11-19T08:26:50;36.88;;;6.50;;
14203;SDS011;7185;51.854;6.622;2023-11-19T08:29:22;40.03;;;5.75;;
14203;SDS011;7185;51.854;6.622;2023-11-19T08:31:54;35.35;;;6.53;;
14203;SDS011;7185;51.854;6.622;2023-11-19T08:34:27;35.55;;;6.43;;
14203;SDS011;7185;51.854;6.622;2023-11-19T08:36:59;26.10;;;5.70;;
14203;SDS011;7185;51.854;6.622;2023-11-19T08:39:31;38.13;;;6.15;;
14203;SDS011;7185;51.854;6.622;2023-11-19T08:42:08;43.08;;;7.68;;
14203;SDS011;7185;51.854;6.622;2023-11-19T08:44:40;34.17;;;6.25;;
14203;SDS011;7185;51.854;6.622;2023-11-19T08:47:13;37.53;;;6.32;;
14203;SDS011;7185;51.854;6.622;2023-11-19T08:49:47;39.20;;;6.30;;
14203;SDS011;7185;51.854;6.622;2023-11-19T08:52:19;39.78;;;5.40;;
14203;SDS011;7185;51.854;6.622;2023-11-19T08:54:51;36.78;;;5.70;;
14203;SDS011;7185;51.854;6.622;2023-11-19T08:57:22;34.00;;;5.78;;
14203;SDS011;7185;51.854;6.622;2023-11-19T08:59:54;36.35;;;5.97;;
14203;SDS011;7185;51.854;6.622;2023-11-19T09:02:26;39.20;;;6.68;;
14203;SDS011;7185;51.854;6.622;2023-11-19T09:04:59;33.15;;;5.85;;
14203;SDS011;7185;51.854;6.622;2023-11-19T09:07:32;29.88;;;5.38;;
14203;SDS011;7185;51.854;6.622;2023-11-19T09:10:04;33.47;;;5.85;;
14203;SDS011;7185;51.854;6.622;2023-11-19T09:16:39;29.77;;;5.63;;
14203;SDS011;7185;51.854;6.622;2023-11-19T09:19:17;32.78;;;6.28;;
14203;SDS011;7185;51.854;6.622;2023-11-19T09:21:57;31.40;;;5.85;;
14203;SDS011;7185;51.854;6.622;2023-11-19T09:24:29;32.45;;;6.88;;
14203;SDS011;7185;51.854;6.622;2023-11-19T09:27:00;29.92;;;5.82;;
14203;SDS011;7185;51.854;6.622;2023-11-19T09:29:32;41.72;;;6.45;;
14203;SDS011;7185;51.854;6.622;2023-11-19T09:32:05;35.42;;;6.18;;
14203;SDS011;7185;51.854;6.622;2023-11-19T09:34:37;32.20;;;6.22;;
14203;SDS011;7185;51.854;6.622;2023-11-19T09:37:10;42.55;;;7.18;;
14203;SDS011;7185;51.854;6.622;2023-11-19T09:39:42;34.17;;;6.53;;
14203;SDS011;7185;51.854;6.622;2023-11-19T09:42:15;31.52;;;5.20;;
14203;SDS011;7185;51.854;6.622;2023-11-19T09:44:48;39.72;;;8.15;;
14203;SDS011;7185;51.854;6.622;2023-11-19T09:47:20;39.33;;;7.45;;
14203;SDS011;7185;51.854;6.622;2023-11-19T09:49:52;35.80;;;6.32;;
14203;SDS011;7185;51.854;6.622;2023-11-19T09:52:33;33.50;;;6.75;;
14203;SDS011;7185;51.854;6.622;2023-11-19T09:55:04;32.58;;;6.18;;
14203;SDS011;7185;51.854;6.622;2023-11-19T09:57:38;38.30;;;6.32;;
14203;SDS011;7185;51.854;6.622;2023-11-19T10:00:11;32.45;;;5.68;;
14203;SDS011;7185;51.854;6.622;2023-11-19T10:02:45;36.50;;;5.75;;
14203;SDS011;7185;51.854;6.622;2023-11-19T10:05:18;42.83;;;7.03;;
14203;SDS011;7185;51.854;6.622;2023-11-19T10:07:54;35.40;;;6.05;;
14203;SDS011;7185;51.854;6.622;2023-11-19T10:10:27;34.05;;;6.22;;
14203;SDS011;7185;51.854;6.622;2023-11-19T10:12:59;35.65;;;6.03;;
14203;SDS011;7185;51.854;6.622;2023-11-19T10:15:33;35.78;;;6.38;;
14203;SDS011;7185;51.854;6.622;2023-11-19T10:18:07;34.92;;;5.78;;
14203;SDS011;7185;51.854;6.622;2023-11-19T10:20:40;31.45;;;5.25;;
14203;SDS011;7185;51.854;6.622;2023-11-19T10:23:14;48.38;;;6.35;;
14203;SDS011;7185;51.854;6.622;2023-11-19T10:25:46;32.25;;;5.72;;
14203;SDS011;7185;51.854;6.622;2023-11-19T10:28:21;33.55;;;5.60;;
14203;SDS011;7185;51.854;6.622;2023-11-19T10:34:24;30.55;;;5.63;;
14203;SDS011;7185;51.854;6.622;2023-11-19T10:36:57;33.45;;;6.15;;
14203;SDS011;7185;51.854;6.622;2023-11-19T10:39:37;37.55;;;6.13;;
14203;SDS011;7185;51.854;6.622;2023-11-19T10:42:24;39.20;;;7.35;;
14203;SDS011;7185;51.854;6.622;2023-11-19T10:44:56;34.00;;;6.78;;
14203;SDS011;7185;51.854;6.622;2023-11-19T10:47:27;30.55;;;5.80;;
14203;SDS011;7185;51.854;6.622;2023-11-19T10:50:01;27.58;;;5.57;;
14203;SDS011;7185;51.854;6.622;2023-11-19T10:52:33;35.33;;;7.78;;
14203;SDS011;7185;51.854;6.622;2023-11-19T10:55:07;28.20;;;5.40;;
14203;SDS011;7185;51.854;6.622;2023-11-19T10:57:44;35.60;;;6.88;;
14203;SDS011;7185;51.854;6.622;2023-11-19T11:00:23;28.95;;;6.15;;
14203;SDS011;7185;51.854;6.622;2023-11-19T11:02:59;34.40;;;5.95;;
14203;SDS011;7185;51.854;6.622;2023-11-19T11:05:32;26.90;;;5.43;;
14203;SDS011;7185;51.854;6.622;2023-11-19T11:08:04;31.35;;;5.55;;
14203;SDS011;7185;51.854;6.622;2023-11-19T11:10:42;28.38;;;5.85;;
14203;SDS011;7185;51.854;6.622;2023-11-19T11:13:15;38.42;;;6.57;;
14203;SDS011;7185;51.854;6.622;2023-11-19T11:15:47;32.95;;;5.50;;
14203;SDS011;7185;51.854;6.622;2023-11-19T11:18:23;31.40;;;5.80;;
14203;SDS011;7185;51.854;6.622;2023-11-19T11:20:58;25.77;;;4.97;;
14203;SDS011;7185;51.854;6.622;2023-11-19T11:26:59;33.92;;;5.43;;
14203;SDS011;7185;51.854;6.622;2023-11-19T11:29:46;27.77;;;4.75;;
14203;SDS011;7185;51.854;6.622;2023-11-19T11:32:33;34.10;;;6.40;;
14203;SDS011;7185;51.854;6.622;2023-11-19T11:35:13;30.27;;;6.25;;
14203;SDS011;7185;51.854;6.622;2023-11-19T11:37:59;25.45;;;5.80;;
14203;SDS011;7185;51.854;6.622;2023-11-19T11:40:34;27.60;;;5.85;;
14203;SDS011;7185;51.854;6.622;2023-11-19T11:43:13;33.00;;;5.30;;
14203;SDS011;7185;51.854;6.622;2023-11-19T11:49:27;34.25;;;5.90;;
14203;SDS011;7185;51.854;6.622;2023-11-19T11:52:03;27.52;;;5.10;;
14203;SDS011;7185;51.854;6.622;2023-11-19T11:54:35;28.50;;;6.00;;
14203;SDS011;7185;51.854;6.622;2023-11-19T11:57:07;23.08;;;5.22;;
14203;SDS011;7185;51.854;6.622;2023-11-19T11:59:52;25.83;;;5.90;;
14203;SDS011;7185;51.854;6.622;2023-11-19T12:02:31;22.77;;;5.60;;
14203;SDS011;7185;51.854;6.622;2023-11-19T12:05:03;28.85;;;5.35;;
14203;SDS011;7185;51.854;6.622;2023-11-19T12:07:37;25.33;;;5.68;;
14203;SDS011;7185;51.854;6.622;2023-11-19T12:10:10;33.40;;;6.35;;
14203;SDS011;7185;51.854;6.622;2023-11-19T12:12:43;29.50;;;6.40;;
14203;SDS011;7185;51.854;6.622;2023-11-19T12:15:16;27.67;;;5.38;;
14203;SDS011;7185;51.854;6.622;2023-11-19T12:17:50;25.75;;;4.97;;
14203;SDS011;7185;51.854;6.622;2023-11-19T12:20:22;29.77;;;5.82;;
14203;SDS011;7185;51.854;6.622;2023-11-19T12:23:02;33.85;;;5.95;;
14203;SDS011;7185;51.854;6.622;2023-11-19T12:25:37;28.10;;;4.68;;
14203;SDS011;7185;51.854;6.622;2023-11-19T12:28:11;30.67;;;6.72;;
14203;SDS011;7185;51.854;6.622;2023-11-19T12:30:45;27.85;;;4.93;;
14203;SDS011;7185;51.854;6.622;2023-11-19T12:33:21;23.80;;;4.90;;
14203;SDS011;7185;51.854;6.622;2023-11-19T12:35:57;23.27;;;5.43;;
14203;SDS011;7185;51.854;6.622;2023-11-19T12:38:35;27.08;;;5.70;;
14203;SDS011;7185;51.854;6.622;2023-11-19T12:41:07;28.15;;;4.97;;
14203;SDS011;7185;51.854;6.622;2023-11-19T12:43:53;33.97;;;5.78;;
14203;SDS011;7185;51.854;6.622;2023-11-19T12:46:26;23.92;;;4.55;;
14203;SDS011;7185;51.854;6.622;2023-11-19T12:48:58;26.60;;;5.78;;
14203;SDS011;7185;51.854;6.622;2023-11-19T12:51:30;19.83;;;4.28;;
14203;SDS011;7185;51.854;6.622;2023-11-19T12:54:03;25.52;;;4.35;;
14203;SDS011;7185;51.854;6.622;2023-11-19T12:56:35;31.75;;;4.70;;
14203;SDS011;7185;51.854;6.622;2023-11-19T12:59:11;18.48;;;3.80;;
14203;SDS011;7185;51.854;6.622;2023-11-19T13:01:58;18.80;;;3.90;;
14203;SDS011;7185;51.854;6.622;2023-11-19T13:04:37;18.10;;;4.40;;
14203;SDS011;7185;51.854;6.622;2023-11-19T13:07:11;18.95;;;4.15;;
14203;SDS011;7185;51.854;6.622;2023-11-19T13:09:43;24.95;;;4.10;;
14203;SDS011;7185;51.854;6.622;2023-11-19T13:12:28;17.88;;;3.60;;
14203;SDS011;7185;51.854;6.622;2023-11-19T13:15:21;20.27;;;3.78;;
14203;SDS011;7185;51.854;6.622;2023-11-19T13:18:01;21.70;;;4.28;;
14203;SDS011;7185;51.854;6.622;2023-11-19T13:20:40;17.77;;;3.65;;
14203;SDS011;7185;51.854;6.622;2023-11-19T13:23:12;24.70;;;3.63;;
14203;SDS011;7185;51.854;6.622;2023-11-19T13:26:02;19.85;;;3.67;;
14203;SDS011;7185;51.854;6.622;2023-11-19T13:28:41;14.02;;;3.60;;
14203;SDS011;7185;51.854;6.622;2023-11-19T13:31:22;19.55;;;4.00;;
14203;SDS011;7185;51.854;6.622;2023-11-19T13:33:59;22.05;;;4.47;;
14203;SDS011;7185;51.854;6.622;2023-11-19T13:36:44;20.90;;;4.28;;
14203;SDS011;7185;51.854;6.622;2023-11-19T13:39:23;19.67;;;3.70;;
14203;SDS011;7185;51.854;6.622;2023-11-19T13:42:00;16.40;;;3.70;;
14203;SDS011;7185;51.854;6.622;2023-11-19T13:44:57;18.73;;;3.72;;
14203;SDS011;7185;51.854;6.622;2023-11-19T13:47:44;19.60;;;4.03;;
14203;SDS011;7185;51.854;6.622;2023-11-19T13:50:21;18.95;;;3.90;;
14203;SDS011;7185;51.854;6.622;2023-11-19T13:52:56;19.77;;;4.82;;
14203;SDS011;7185;51.854;6.622;2023-11-19T13:55:42;25.63;;;4.70;;
14203;SDS011;7185;51.854;6.622;2023-11-19T13:58:17;18.80;;;3.97;;
14203;SDS011;7185;51.854;6.622;2023-11-19T14:00:57;22.05;;;4.18;;
14203;SDS011;7185;51.854;6.622;2023-11-19T14:03:32;19.90;;;4.30;;
14203;SDS011;7185;51.854;6.622;2023-11-19T14:06:09;25.75;;;5.25;;
14203;SDS011;7185;51.854;6.622;2023-11-19T14:08:51;21.58;;;5.18;;
14203;SDS011;7185;51.854;6.622;2023-11-19T14:11:27;25.60;;;4.38;;
14203;SDS011;7185;51.854;6.622;2023-11-19T14:14:16;24.83;;;5.30;;
14203;SDS011;7185;51.854;6.622;2023-11-19T14:17:07;23.48;;;4.82;;
14203;SDS011;7185;51.854;6.622;2023-11-19T14:19:43;20.40;;;4.65;;
14203;SDS011;7185;51.854;6.622;2023-11-19T14:22:24;19.23;;;4.82;;
14203;SDS011;7185;51.854;6.622;2023-11-19T14:25:15;25.52;;;5.00;;
14203;SDS011;7185;51.854;6.622;2023-11-19T14:27:54;22.77;;;4.63;;
14203;SDS011;7185;51.854;6.622;2023-11-19T14:30:42;22.73;;;5.20;;
14203;SDS011;7185;51.854;6.622;2023-11-19T14:33:18;17.52;;;4.07;;
14203;SDS011;7185;51.854;6.622;2023-11-19T14:36:10;25.55;;;4.80;;
14203;SDS011;7185;51.854;6.622;2023-11-19T14:38:50;32.20;;;5.70;;
14203;SDS011;7185;51.854;6.622;2023-11-19T14:41:43;22.35;;;4.05;;
14203;SDS011;7185;51.854;6.622;2023-11-19T14:44:28;21.38;;;4.18;;
14203;SDS011;7185;51.854;6.622;2023-11-19T14:47:03;28.50;;;4.88;;
14203;SDS011;7185;51.854;6.622;2023-11-19T14:49:53;25.23;;;4.95;;
14203;SDS011;7185;51.854;6.622;2023-11-19T14:52:30;26.52;;;4.57;;
14203;SDS011;7185;51.854;6.622;2023-11-19T14:55:09;26.67;;;4.28;;
14203;SDS011;7185;51.854;6.622;2023-11-19T14:57:54;30.58;;;6.18;;
14203;SDS011;7185;51.854;6.622;2023-11-19T15:00:41;18.10;;;4.47;;
14203;SDS011;7185;51.854;6.622;2023-11-19T15:03:19;19.42;;;4.38;;
14203;SDS011;7185;51.854;6.622;2023-11-19T15:06:04;21.25;;;4.35;;
14203;SDS011;7185;51.854;6.622;2023-11-19T15:08:48;27.52;;;4.85;;
14203;SDS011;7185;51.854;6.622;2023-11-19T15:11:34;22.35;;;5.18;;
14203;SDS011;7185;51.854;6.622;2023-11-19T15:14:17;22.13;;;4.53;;
14203;SDS011;7185;51.854;6.622;2023-11-19T15:16:54;17.48;;;4.32;;
14203;SDS011;7185;51.854;6.622;2023-11-19T15:19:30;24.65;;;4.35;;
14203;SDS011;7185;51.854;6.622;2023-11-19T15:22:09;24.02;;;4.03;;
14203;SDS011;7185;51.854;6.622;2023-11-19T15:24:46;24.25;;;4.53;;
14203;SDS011;7185;51.854;6.622;2023-11-19T15:27:30;22.48;;;5.13;;
14203;SDS011;7185;51.854;6.622;2023-11-19T15:30:18;21.52;;;4.15;;
14203;SDS011;7185;51.854;6.622;2023-11-19T15:33:01;25.02;;;4.22;;
14203;SDS011;7185;51.854;6.622;2023-11-19T15:35:38;29.33;;;4.15;;
14203;SDS011;7185;51.854;6.622;2023-11-19T15:38:16;20.75;;;4.70;;
14203;SDS011;7185;51.854;6.622;2023-11-19T15:40:53;27.83;;;4.20;;
14203;SDS011;7185;51.854;6.622;2023-11-19T15:43:31;30.38;;;4.55;;
14203;SDS011;7185;51.854;6.622;2023-11-19T15:46:08;21.65;;;4.50;;